sensor_id;sensor_type;location;lat;lon;timestamp;P1;durP1;ratioP1;P2;durP2;ratioP2
6878;SDS011;3478;51.462;7.338;2024-02-16T00:03:32;1.53;;;0.73;;
6878;SDS011;3478;51.462;7.338;2024-02-16T00:08:34;1.57;;;0.90;;
6878;SDS011;3478;51.462;7.338;2024-02-16T00:13:40;1.57;;;0.90;;
6878;SDS011;3478;51.462;7.338;2024-02-16T00:18:41;1.30;;;0.90;;
6878;SDS011;3478;51.462;7.338;2024-02-16T00:23:43;2.47;;;0.83;;
6878;SDS011;3478;51.462;7.338;2024-02-16T00:28:48;1.60;;;0.80;;
6878;SDS011;3478;51.462;7.338;2024-02-16T00:33:49;2.70;;;1.00;;
6878;SDS011;3478;51.462;7.338;2024-02-16T00:38:52;1.57;;;0.60;;
6878;SDS011;3478;51.462;7.338;2024-02-16T00:43:55;4.07;;;0.80;;
6878;SDS011;3478;51.462;7.338;2024-02-16T00:48:57;1.43;;;0.60;;
6878;SDS011;3478;51.462;7.338;2024-02-16T00:54:00;0.93;;;0.80;;
6878;SDS011;3478;51.462;7.338;2024-02-16T00:59:04;2.80;;;1.20;;
6878;SDS011;3478;51.462;7.338;2024-02-16T01:04:09;3.67;;;0.90;;
6878;SDS011;3478;51.462;7.338;2024-02-16T01:09:11;1.10;;;0.97;;
6878;SDS011;3478;51.462;7.338;2024-02-16T01:14:15;1.50;;;0.80;;
6878;SDS011;3478;51.462;7.338;2024-02-16T01:19:17;2.00;;;0.67;;
6878;SDS011;3478;51.462;7.338;2024-02-16T01:24:19;2.60;;;1.00;;
6878;SDS011;3478;51.462;7.338;2024-02-16T01:29:22;2.07;;;0.60;;
6878;SDS011;3478;51.462;7.338;2024-02-16T01:34:24;2.37;;;1.07;;
6878;SDS011;3478;51.462;7.338;2024-02-16T01:39:26;3.30;;;1.10;;
6878;SDS011;3478;51.462;7.338;2024-02-16T01:44:29;4.67;;;0.80;;
6878;SDS011;3478;51.462;7.338;2024-02-16T01:49:31;6.43;;;0.90;;
6878;SDS011;3478;51.462;7.338;2024-02-16T01:54:34;5.37;;;0.97;;
6878;SDS011;3478;51.462;7.338;2024-02-16T01:59:37;1.40;;;0.93;;
6878;SDS011;3478;51.462;7.338;2024-02-16T02:04:40;3.57;;;0.93;;
6878;SDS011;3478;51.462;7.338;2024-02-16T02:09:42;1.50;;;0.70;;
6878;SDS011;3478;51.462;7.338;2024-02-16T02:14:45;1.50;;;0.80;;
6878;SDS011;3478;51.462;7.338;2024-02-16T02:19:48;2.80;;;0.90;;
6878;SDS011;3478;51.462;7.338;2024-02-16T02:24:51;1.30;;;0.80;;
6878;SDS011;3478;51.462;7.338;2024-02-16T02:29:55;2.20;;;0.70;;
6878;SDS011;3478;51.462;7.338;2024-02-16T02:34:58;2.10;;;0.70;;
6878;SDS011;3478;51.462;7.338;2024-02-16T02:40:01;3.80;;;0.70;;
6878;SDS011;3478;51.462;7.338;2024-02-16T02:45:06;4.77;;;1.10;;
6878;SDS011;3478;51.462;7.338;2024-02-16T02:50:09;4.07;;;0.87;;
6878;SDS011;3478;51.462;7.338;2024-02-16T02:55:12;1.27;;;0.80;;
6878;SDS011;3478;51.462;7.338;2024-02-16T03:00:15;1.30;;;0.83;;
6878;SDS011;3478;51.462;7.338;2024-02-16T03:05:17;0.80;;;0.70;;
6878;SDS011;3478;51.462;7.338;2024-02-16T03:10:21;1.30;;;0.80;;
6878;SDS011;3478;51.462;7.338;2024-02-16T03:15:24;2.70;;;0.97;;
6878;SDS011;3478;51.462;7.338;2024-02-16T03:20:26;2.27;;;0.87;;
6878;SDS011;3478;51.462;7.338;2024-02-16T03:25:29;3.23;;;0.70;;
6878;SDS011;3478;51.462;7.338;2024-02-16T03:30:31;1.07;;;0.67;;
6878;SDS011;3478;51.462;7.338;2024-02-16T03:35:33;1.60;;;0.80;;
6878;SDS011;3478;51.462;7.338;2024-02-16T03:40:37;0.90;;;0.80;;
6878;SDS011;3478;51.462;7.338;2024-02-16T03:45:39;1.43;;;0.80;;
6878;SDS011;3478;51.462;7.338;2024-02-16T03:50:40;1.50;;;0.70;;
6878;SDS011;3478;51.462;7.338;2024-02-16T03:55:44;1.87;;;0.93;;
6878;SDS011;3478;51.462;7.338;2024-02-16T04:00:46;1.70;;;0.87;;
6878;SDS011;3478;51.462;7.338;2024-02-16T04:05:49;1.47;;;0.80;;
6878;SDS011;3478;51.462;7.338;2024-02-16T04:10:54;1.20;;;0.87;;
6878;SDS011;3478;51.462;7.338;2024-02-16T04:15:56;4.17;;;0.80;;
6878;SDS011;3478;51.462;7.338;2024-02-16T04:20:58;1.17;;;0.80;;
6878;SDS011;3478;51.462;7.338;2024-02-16T04:26:01;2.10;;;0.87;;
6878;SDS011;3478;51.462;7.338;2024-02-16T04:31:04;2.20;;;0.80;;
6878;SDS011;3478;51.462;7.338;2024-02-16T04:36:06;1.37;;;0.60;;
6878;SDS011;3478;51.462;7.338;2024-02-16T04:41:10;1.83;;;1.40;;
6878;SDS011;3478;51.462;7.338;2024-02-16T04:46:13;4.63;;;1.20;;
6878;SDS011;3478;51.462;7.338;2024-02-16T04:51:15;1.10;;;0.97;;
6878;SDS011;3478;51.462;7.338;2024-02-16T04:56:19;1.67;;;1.57;;
6878;SDS011;3478;51.462;7.338;2024-02-16T05:01:23;1.77;;;0.93;;
6878;SDS011;3478;51.462;7.338;2024-02-16T05:06:25;2.20;;;0.77;;
6878;SDS011;3478;51.462;7.338;2024-02-16T05:11:28;1.83;;;0.90;;
6878;SDS011;3478;51.462;7.338;2024-02-16T05:16:33;1.10;;;1.00;;
6878;SDS011;3478;51.462;7.338;2024-02-16T05:21:35;1.17;;;0.90;;
6878;SDS011;3478;51.462;7.338;2024-02-16T05:26:38;1.43;;;0.90;;
6878;SDS011;3478;51.462;7.338;2024-02-16T05:31:40;1.80;;;0.80;;
6878;SDS011;3478;51.462;7.338;2024-02-16T05:36:42;2.50;;;1.33;;
6878;SDS011;3478;51.462;7.338;2024-02-16T05:41:46;1.13;;;0.80;;
6878;SDS011;3478;51.462;7.338;2024-02-16T05:46:48;2.57;;;0.90;;
6878;SDS011;3478;51.462;7.338;2024-02-16T05:51:50;5.83;;;1.40;;
6878;SDS011;3478;51.462;7.338;2024-02-16T05:57:18;2.90;;;1.13;;
6878;SDS011;3478;51.462;7.338;2024-02-16T06:02:20;7.20;;;1.60;;
6878;SDS011;3478;51.462;7.338;2024-02-16T06:07:25;2.30;;;1.70;;
6878;SDS011;3478;51.462;7.338;2024-02-16T06:12:28;3.13;;;1.77;;
6878;SDS011;3478;51.462;7.338;2024-02-16T06:17:30;2.00;;;0.90;;
6878;SDS011;3478;51.462;7.338;2024-02-16T06:22:32;2.90;;;1.30;;
6878;SDS011;3478;51.462;7.338;2024-02-16T06:27:36;5.73;;;1.23;;
6878;SDS011;3478;51.462;7.338;2024-02-16T06:32:37;3.20;;;1.47;;
6878;SDS011;3478;51.462;7.338;2024-02-16T06:37:40;1.83;;;1.40;;
6878;SDS011;3478;51.462;7.338;2024-02-16T06:42:43;2.90;;;2.63;;
6878;SDS011;3478;51.462;7.338;2024-02-16T06:47:46;1.50;;;1.30;;
6878;SDS011;3478;51.462;7.338;2024-02-16T06:52:48;1.90;;;1.60;;
6878;SDS011;3478;51.462;7.338;2024-02-16T06:57:51;2.20;;;1.00;;
6878;SDS011;3478;51.462;7.338;2024-02-16T07:02:53;1.50;;;1.40;;
6878;SDS011;3478;51.462;7.338;2024-02-16T07:07:55;1.30;;;1.20;;
6878;SDS011;3478;51.462;7.338;2024-02-16T07:12:58;3.13;;;1.83;;
6878;SDS011;3478;51.462;7.338;2024-02-16T07:18:00;6.03;;;2.37;;
6878;SDS011;3478;51.462;7.338;2024-02-16T07:23:04;3.80;;;1.37;;
6878;SDS011;3478;51.462;7.338;2024-02-16T07:28:07;3.07;;;1.50;;
6878;SDS011;3478;51.462;7.338;2024-02-16T07:33:09;4.80;;;1.60;;
6878;SDS011;3478;51.462;7.338;2024-02-16T07:38:11;2.60;;;1.03;;
6878;SDS011;3478;51.462;7.338;2024-02-16T07:43:14;4.33;;;1.17;;
6878;SDS011;3478;51.462;7.338;2024-02-16T07:48:16;1.60;;;1.47;;
6878;SDS011;3478;51.462;7.338;2024-02-16T07:53:18;3.33;;;1.93;;
6878;SDS011;3478;51.462;7.338;2024-02-16T07:58:21;1.83;;;1.00;;
6878;SDS011;3478;51.462;7.338;2024-02-16T08:03:23;1.63;;;1.53;;
6878;SDS011;3478;51.462;7.338;2024-02-16T08:08:25;2.20;;;1.90;;
6878;SDS011;3478;51.462;7.338;2024-02-16T08:13:28;1.73;;;1.37;;
6878;SDS011;3478;51.462;7.338;2024-02-16T08:18:30;4.50;;;1.20;;
6878;SDS011;3478;51.462;7.338;2024-02-16T08:23:32;3.23;;;1.27;;
6878;SDS011;3478;51.462;7.338;2024-02-16T08:28:35;2.67;;;1.60;;
6878;SDS011;3478;51.462;7.338;2024-02-16T08:33:39;2.97;;;1.70;;
6878;SDS011;3478;51.462;7.338;2024-02-16T08:38:41;1.70;;;0.80;;
6878;SDS011;3478;51.462;7.338;2024-02-16T08:43:45;7.77;;;1.60;;
6878;SDS011;3478;51.462;7.338;2024-02-16T08:48:47;2.13;;;1.37;;
6878;SDS011;3478;51.462;7.338;2024-02-16T08:53:49;1.70;;;0.90;;
6878;SDS011;3478;51.462;7.338;2024-02-16T08:58:53;2.40;;;1.13;;
6878;SDS011;3478;51.462;7.338;2024-02-16T09:03:55;4.07;;;1.53;;
6878;SDS011;3478;51.462;7.338;2024-02-16T09:08:57;6.00;;;1.13;;
6878;SDS011;3478;51.462;7.338;2024-02-16T09:14:00;3.83;;;2.70;;
6878;SDS011;3478;51.462;7.338;2024-02-16T09:19:02;2.23;;;0.90;;
6878;SDS011;3478;51.462;7.338;2024-02-16T09:24:04;2.30;;;1.90;;
6878;SDS011;3478;51.462;7.338;2024-02-16T09:29:11;2.60;;;1.33;;
6878;SDS011;3478;51.462;7.338;2024-02-16T09:34:14;6.43;;;1.90;;
6878;SDS011;3478;51.462;7.338;2024-02-16T09:39:16;4.47;;;1.30;;
6878;SDS011;3478;51.462;7.338;2024-02-16T09:44:19;4.43;;;1.37;;
6878;SDS011;3478;51.462;7.338;2024-02-16T09:49:22;4.97;;;1.50;;
6878;SDS011;3478;51.462;7.338;2024-02-16T09:54:24;2.60;;;1.23;;
6878;SDS011;3478;51.462;7.338;2024-02-16T09:59:28;6.83;;;2.33;;
6878;SDS011;3478;51.462;7.338;2024-02-16T10:04:30;5.10;;;2.30;;
6878;SDS011;3478;51.462;7.338;2024-02-16T10:09:32;4.27;;;2.10;;
6878;SDS011;3478;51.462;7.338;2024-02-16T10:14:35;4.50;;;1.93;;
6878;SDS011;3478;51.462;7.338;2024-02-16T10:19:41;2.63;;;1.20;;
6878;SDS011;3478;51.462;7.338;2024-02-16T10:24:43;2.03;;;1.60;;
6878;SDS011;3478;51.462;7.338;2024-02-16T10:29:46;2.77;;;1.80;;
6878;SDS011;3478;51.462;7.338;2024-02-16T10:34:50;6.60;;;1.50;;
6878;SDS011;3478;51.462;7.338;2024-02-16T10:39:54;4.90;;;2.43;;
6878;SDS011;3478;51.462;7.338;2024-02-16T10:44:59;7.00;;;2.10;;
6878;SDS011;3478;51.462;7.338;2024-02-16T10:50:02;6.07;;;2.10;;
6878;SDS011;3478;51.462;7.338;2024-02-16T10:55:05;6.40;;;1.73;;
6878;SDS011;3478;51.462;7.338;2024-02-16T11:00:10;7.23;;;1.90;;
6878;SDS011;3478;51.462;7.338;2024-02-16T11:05:13;3.00;;;1.93;;
6878;SDS011;3478;51.462;7.338;2024-02-16T11:10:15;3.50;;;1.63;;
6878;SDS011;3478;51.462;7.338;2024-02-16T11:15:18;4.47;;;2.27;;
6878;SDS011;3478;51.462;7.338;2024-02-16T11:20:28;6.47;;;1.90;;
6878;SDS011;3478;51.462;7.338;2024-02-16T11:25:37;6.60;;;2.17;;
6878;SDS011;3478;51.462;7.338;2024-02-16T11:30:40;6.40;;;2.20;;
6878;SDS011;3478;51.462;7.338;2024-02-16T11:35:51;4.07;;;2.47;;
6878;SDS011;3478;51.462;7.338;2024-02-16T11:40:54;2.37;;;2.27;;
6878;SDS011;3478;51.462;7.338;2024-02-16T11:45:59;4.30;;;2.07;;
6878;SDS011;3478;51.462;7.338;2024-02-16T11:51:01;11.73;;;2.80;;
6878;SDS011;3478;51.462;7.338;2024-02-16T11:56:05;4.93;;;2.40;;
6878;SDS011;3478;51.462;7.338;2024-02-16T12:01:11;5.43;;;2.43;;
6878;SDS011;3478;51.462;7.338;2024-02-16T12:06:19;6.60;;;2.13;;
6878;SDS011;3478;51.462;7.338;2024-02-16T12:11:23;4.53;;;2.80;;
6878;SDS011;3478;51.462;7.338;2024-02-16T12:16:26;8.43;;;2.20;;
6878;SDS011;3478;51.462;7.338;2024-02-16T12:21:29;7.73;;;2.33;;
6878;SDS011;3478;51.462;7.338;2024-02-16T12:26:32;4.40;;;2.83;;
6878;SDS011;3478;51.462;7.338;2024-02-16T12:31:35;3.10;;;2.80;;
6878;SDS011;3478;51.462;7.338;2024-02-16T12:36:38;4.73;;;2.83;;
6878;SDS011;3478;51.462;7.338;2024-02-16T12:41:40;14.03;;;2.97;;
6878;SDS011;3478;51.462;7.338;2024-02-16T12:46:45;2.50;;;2.30;;
6878;SDS011;3478;51.462;7.338;2024-02-16T12:51:47;2.80;;;2.27;;
6878;SDS011;3478;51.462;7.338;2024-02-16T12:56:51;5.87;;;2.10;;
6878;SDS011;3478;51.462;7.338;2024-02-16T13:01:55;3.50;;;2.53;;
6878;SDS011;3478;51.462;7.338;2024-02-16T13:06:57;2.63;;;2.20;;
6878;SDS011;3478;51.462;7.338;2024-02-16T13:11:59;3.00;;;2.80;;
6878;SDS011;3478;51.462;7.338;2024-02-16T13:17:03;3.30;;;2.77;;
6878;SDS011;3478;51.462;7.338;2024-02-16T13:22:05;5.00;;;4.07;;
6878;SDS011;3478;51.462;7.338;2024-02-16T13:27:07;4.47;;;4.07;;
6878;SDS011;3478;51.462;7.338;2024-02-16T13:32:11;3.40;;;2.90;;
6878;SDS011;3478;51.462;7.338;2024-02-16T13:37:12;17.10;;;4.07;;
6878;SDS011;3478;51.462;7.338;2024-02-16T13:42:15;5.50;;;4.77;;
6878;SDS011;3478;51.462;7.338;2024-02-16T13:47:21;8.97;;;4.40;;
6878;SDS011;3478;51.462;7.338;2024-02-16T13:52:24;6.83;;;4.80;;
6878;SDS011;3478;51.462;7.338;2024-02-16T13:57:26;5.30;;;4.00;;
6878;SDS011;3478;51.462;7.338;2024-02-16T14:02:29;7.30;;;4.47;;
6878;SDS011;3478;51.462;7.338;2024-02-16T14:07:31;6.03;;;5.50;;
6878;SDS011;3478;51.462;7.338;2024-02-16T14:12:33;6.13;;;5.60;;
6878;SDS011;3478;51.462;7.338;2024-02-16T14:17:37;9.60;;;6.50;;
6878;SDS011;3478;51.462;7.338;2024-02-16T14:22:39;10.97;;;7.80;;
6878;SDS011;3478;51.462;7.338;2024-02-16T14:27:41;11.20;;;7.93;;
6878;SDS011;3478;51.462;7.338;2024-02-16T14:32:45;13.57;;;7.37;;
6878;SDS011;3478;51.462;7.338;2024-02-16T14:37:47;8.53;;;7.47;;
6878;SDS011;3478;51.462;7.338;2024-02-16T14:42:50;8.40;;;7.30;;
6878;SDS011;3478;51.462;7.338;2024-02-16T14:47:53;9.23;;;7.90;;
6878;SDS011;3478;51.462;7.338;2024-02-16T14:52:55;8.87;;;8.03;;
6878;SDS011;3478;51.462;7.338;2024-02-16T14:57:57;9.40;;;8.20;;
6878;SDS011;3478;51.462;7.338;2024-02-16T15:03:00;9.70;;;8.50;;
6878;SDS011;3478;51.462;7.338;2024-02-16T15:08:03;12.90;;;8.10;;
6878;SDS011;3478;51.462;7.338;2024-02-16T15:13:05;15.00;;;9.30;;
6878;SDS011;3478;51.462;7.338;2024-02-16T15:18:09;10.70;;;9.70;;
6878;SDS011;3478;51.462;7.338;2024-02-16T15:23:11;13.73;;;9.93;;
6878;SDS011;3478;51.462;7.338;2024-02-16T15:28:13;13.33;;;12.03;;
6878;SDS011;3478;51.462;7.338;2024-02-16T15:33:16;13.60;;;11.17;;
6878;SDS011;3478;51.462;7.338;2024-02-16T15:38:18;15.87;;;14.13;;
6878;SDS011;3478;51.462;7.338;2024-02-16T15:43:20;21.03;;;13.97;;
6878;SDS011;3478;51.462;7.338;2024-02-16T15:48:24;18.90;;;14.40;;
6878;SDS011;3478;51.462;7.338;2024-02-16T15:53:26;20.53;;;15.80;;
6878;SDS011;3478;51.462;7.338;2024-02-16T15:58:31;14.07;;;12.67;;
6878;SDS011;3478;51.462;7.338;2024-02-16T16:03:34;16.07;;;12.50;;
6878;SDS011;3478;51.462;7.338;2024-02-16T16:08:36;14.70;;;12.97;;
6878;SDS011;3478;51.462;7.338;2024-02-16T16:13:40;14.87;;;11.60;;
6878;SDS011;3478;51.462;7.338;2024-02-16T16:18:43;15.20;;;11.47;;
6878;SDS011;3478;51.462;7.338;2024-02-16T16:23:46;12.10;;;9.10;;
6878;SDS011;3478;51.462;7.338;2024-02-16T16:28:48;13.13;;;11.13;;
6878;SDS011;3478;51.462;7.338;2024-02-16T16:33:52;10.63;;;9.60;;
6878;SDS011;3478;51.462;7.338;2024-02-16T16:38:54;9.97;;;9.07;;
6878;SDS011;3478;51.462;7.338;2024-02-16T16:43:55;12.50;;;11.20;;
6878;SDS011;3478;51.462;7.338;2024-02-16T16:48:59;11.20;;;10.10;;
6878;SDS011;3478;51.462;7.338;2024-02-16T16:54:01;11.10;;;9.60;;
6878;SDS011;3478;51.462;7.338;2024-02-16T16:59:03;11.40;;;10.30;;
6878;SDS011;3478;51.462;7.338;2024-02-16T17:04:07;11.73;;;10.50;;
6878;SDS011;3478;51.462;7.338;2024-02-16T17:09:09;11.33;;;9.50;;
6878;SDS011;3478;51.462;7.338;2024-02-16T17:14:11;10.53;;;9.43;;
6878;SDS011;3478;51.462;7.338;2024-02-16T17:19:14;12.07;;;10.83;;
6878;SDS011;3478;51.462;7.338;2024-02-16T17:24:16;12.23;;;10.93;;
6878;SDS011;3478;51.462;7.338;2024-02-16T17:29:18;14.63;;;12.33;;
6878;SDS011;3478;51.462;7.338;2024-02-16T17:34:22;13.17;;;11.67;;
6878;SDS011;3478;51.462;7.338;2024-02-16T17:39:23;10.00;;;9.00;;
6878;SDS011;3478;51.462;7.338;2024-02-16T17:44:26;10.53;;;8.80;;
6878;SDS011;3478;51.462;7.338;2024-02-16T17:49:29;6.97;;;6.13;;
6878;SDS011;3478;51.462;7.338;2024-02-16T17:54:31;5.50;;;5.07;;
6878;SDS011;3478;51.462;7.338;2024-02-16T17:59:33;5.93;;;5.50;;
6878;SDS011;3478;51.462;7.338;2024-02-16T18:04:37;5.60;;;5.20;;
6878;SDS011;3478;51.462;7.338;2024-02-16T18:09:39;5.90;;;5.20;;
6878;SDS011;3478;51.462;7.338;2024-02-16T18:14:41;5.20;;;4.80;;
6878;SDS011;3478;51.462;7.338;2024-02-16T18:19:45;4.27;;;3.97;;
6878;SDS011;3478;51.462;7.338;2024-02-16T18:24:47;3.77;;;3.57;;
6878;SDS011;3478;51.462;7.338;2024-02-16T18:29:49;3.80;;;3.50;;
6878;SDS011;3478;51.462;7.338;2024-02-16T18:34:52;2.70;;;2.50;;
6878;SDS011;3478;51.462;7.338;2024-02-16T18:39:54;3.00;;;2.57;;
6878;SDS011;3478;51.462;7.338;2024-02-16T18:44:56;2.70;;;2.30;;
6878;SDS011;3478;51.462;7.338;2024-02-16T18:50:00;2.70;;;2.50;;
6878;SDS011;3478;51.462;7.338;2024-02-16T18:55:02;4.40;;;2.30;;
6878;SDS011;3478;51.462;7.338;2024-02-16T19:00:05;3.57;;;2.57;;
6878;SDS011;3478;51.462;7.338;2024-02-16T19:05:10;2.50;;;2.30;;
6878;SDS011;3478;51.462;7.338;2024-02-16T19:10:13;3.47;;;3.27;;
6878;SDS011;3478;51.462;7.338;2024-02-16T19:15:15;3.63;;;3.40;;
6878;SDS011;3478;51.462;7.338;2024-02-16T19:20:18;3.53;;;3.23;;
6878;SDS011;3478;51.462;7.338;2024-02-16T19:25:20;3.00;;;2.80;;
6878;SDS011;3478;51.462;7.338;2024-02-16T19:30:22;9.47;;;5.30;;
6878;SDS011;3478;51.462;7.338;2024-02-16T19:35:26;6.07;;;5.53;;
6878;SDS011;3478;51.462;7.338;2024-02-16T19:40:28;10.20;;;8.50;;
6878;SDS011;3478;51.462;7.338;2024-02-16T19:45:30;11.00;;;9.37;;
6878;SDS011;3478;51.462;7.338;2024-02-16T19:50:33;11.70;;;10.20;;
6878;SDS011;3478;51.462;7.338;2024-02-16T19:55:35;13.57;;;11.93;;
6878;SDS011;3478;51.462;7.338;2024-02-16T20:00:37;14.70;;;10.70;;
6878;SDS011;3478;51.462;7.338;2024-02-16T20:05:40;18.00;;;12.73;;
6878;SDS011;3478;51.462;7.338;2024-02-16T20:10:43;16.30;;;11.60;;
6878;SDS011;3478;51.462;7.338;2024-02-16T20:15:45;15.50;;;10.80;;
6878;SDS011;3478;51.462;7.338;2024-02-16T20:20:48;12.83;;;10.80;;
6878;SDS011;3478;51.462;7.338;2024-02-16T20:25:50;15.57;;;10.77;;
6878;SDS011;3478;51.462;7.338;2024-02-16T20:30:52;12.07;;;10.50;;
6878;SDS011;3478;51.462;7.338;2024-02-16T20:35:55;12.90;;;10.70;;
6878;SDS011;3478;51.462;7.338;2024-02-16T20:40:57;12.07;;;9.17;;
6878;SDS011;3478;51.462;7.338;2024-02-16T20:45:59;13.37;;;10.20;;
6878;SDS011;3478;51.462;7.338;2024-02-16T20:51:03;11.00;;;9.47;;
6878;SDS011;3478;51.462;7.338;2024-02-16T20:56:05;10.33;;;9.23;;
6878;SDS011;3478;51.462;7.338;2024-02-16T21:01:07;14.70;;;10.30;;
6878;SDS011;3478;51.462;7.338;2024-02-16T21:06:10;12.47;;;11.00;;
6878;SDS011;3478;51.462;7.338;2024-02-16T21:11:14;13.10;;;10.00;;
6878;SDS011;3478;51.462;7.338;2024-02-16T21:16:17;15.50;;;10.93;;
6878;SDS011;3478;51.462;7.338;2024-02-16T21:21:20;11.90;;;10.23;;
6878;SDS011;3478;51.462;7.338;2024-02-16T21:26:23;13.23;;;9.70;;
6878;SDS011;3478;51.462;7.338;2024-02-16T21:31:25;14.20;;;9.80;;
6878;SDS011;3478;51.462;7.338;2024-02-16T21:36:28;17.57;;;11.23;;
6878;SDS011;3478;51.462;7.338;2024-02-16T21:41:30;15.47;;;10.77;;
6878;SDS011;3478;51.462;7.338;2024-02-16T21:46:32;20.93;;;13.33;;
6878;SDS011;3478;51.462;7.338;2024-02-16T21:51:37;20.40;;;15.30;;
6878;SDS011;3478;51.462;7.338;2024-02-16T21:56:39;23.13;;;16.83;;
6878;SDS011;3478;51.462;7.338;2024-02-16T22:01:41;39.67;;;22.30;;
6878;SDS011;3478;51.462;7.338;2024-02-16T22:06:44;34.97;;;20.67;;
6878;SDS011;3478;51.462;7.338;2024-02-16T22:11:47;29.87;;;20.27;;
6878;SDS011;3478;51.462;7.338;2024-02-16T22:16:50;33.40;;;21.87;;
6878;SDS011;3478;51.462;7.338;2024-02-16T22:21:53;34.47;;;21.60;;
6878;SDS011;3478;51.462;7.338;2024-02-16T22:26:55;36.30;;;21.60;;
6878;SDS011;3478;51.462;7.338;2024-02-16T22:31:57;41.53;;;23.00;;
6878;SDS011;3478;51.462;7.338;2024-02-16T22:37:01;35.77;;;23.37;;
6878;SDS011;3478;51.462;7.338;2024-02-16T22:42:04;35.23;;;23.50;;
6878;SDS011;3478;51.462;7.338;2024-02-16T22:47:06;37.60;;;23.87;;
6878;SDS011;3478;51.462;7.338;2024-02-16T22:52:09;39.53;;;25.27;;
6878;SDS011;3478;51.462;7.338;2024-02-16T22:57:11;36.13;;;23.53;;
6878;SDS011;3478;51.462;7.338;2024-02-16T23:02:14;47.83;;;25.83;;
6878;SDS011;3478;51.462;7.338;2024-02-16T23:07:17;49.37;;;29.13;;
6878;SDS011;3478;51.462;7.338;2024-02-16T23:12:19;45.10;;;27.90;;
6878;SDS011;3478;51.462;7.338;2024-02-16T23:17:23;43.60;;;27.40;;
6878;SDS011;3478;51.462;7.338;2024-02-16T23:22:27;55.20;;;27.80;;
6878;SDS011;3478;51.462;7.338;2024-02-16T23:27:29;41.70;;;24.53;;
6878;SDS011;3478;51.462;7.338;2024-02-16T23:32:31;42.47;;;26.90;;
6878;SDS011;3478;51.462;7.338;2024-02-16T23:37:34;43.30;;;24.60;;
6878;SDS011;3478;51.462;7.338;2024-02-16T23:42:36;42.60;;;24.87;;
6878;SDS011;3478;51.462;7.338;2024-02-16T23:47:39;38.23;;;23.83;;
6878;SDS011;3478;51.462;7.338;2024-02-16T23:52:43;46.67;;;28.27;;
6878;SDS011;3478;51.462;7.338;2024-02-16T23:57:46;46.00;;;27.40;;
